Time;durP1;ratioP1;P1;durP2;ratioP2;P2;SDS_P1;SDS_P2;PMS_P1;PMS_P2;Temp;Humidity;BMP_temperature;BMP_pressure;BME280_temperature;BME280_humidity;BME280_pressure;Samples;Min_cycle;Max_cycle;Signal;HPM_P1;HPM_P2
2021/07/29 00:01:11;;;;;;;23.83;22.33;;;;;;;;;;5016710;28;20430;-87
2021/07/29 00:03:39;;;;;;;22.60;21.13;;;;;;;;;;5016770;28;20436;-87
2021/07/29 00:06:06;;;;;;;21.47;20.37;;;;;;;;;;5016971;28;20446;-87
2021/07/29 00:08:34;;;;;;;22.00;20.73;;;;;;;;;;5016539;28;20453;-88
2021/07/29 00:11:01;;;;;;;21.93;20.67;;;;;;;;;;5016416;28;20434;-88
2021/07/29 00:13:28;;;;;;;20.73;19.23;;;;;;;;;;5016599;28;20507;-87
2021/07/29 00:15:58;;;;;;;21.57;20.27;;;;;;;;;;5016656;28;20427;-88
2021/07/29 00:21:11;;;;;;;21.53;20.13;;;;;;;;;;5016752;28;20914;-87
2021/07/29 00:23:39;;;;;;;21.70;20.50;;;;;;;;;;5016177;28;20462;-87
2021/07/29 00:26:06;;;;;;;20.50;19.40;;;;;;;;;;5016059;28;20946;-88
2021/07/29 00:28:34;;;;;;;22.10;20.77;;;;;;;;;;5016171;28;20441;-88
2021/07/29 00:31:01;;;;;;;21.17;19.97;;;;;;;;;;5016287;28;20959;-87
2021/07/29 00:33:30;;;;;;;21.27;19.97;;;;;;;;;;5015964;28;20473;-87
2021/07/29 00:35:57;;;;;;;21.80;20.40;;;;;;;;;;5016341;28;20426;-87
2021/07/29 00:38:25;;;;;;;20.40;19.10;;;;;;;;;;5016442;28;20469;-88
2021/07/29 00:40:52;;;;;;;20.80;19.70;;;;;;;;;;5016334;28;20420;-87
2021/07/29 00:43:19;;;;;;;22.53;21.03;;;;;;;;;;5015760;28;20444;-88
2021/07/29 00:45:47;;;;;;;22.00;20.70;;;;;;;;;;5015841;28;20539;-87
2021/07/29 00:48:14;;;;;;;21.20;20.00;;;;;;;;;;5015840;28;20415;-87
2021/07/29 00:50:43;;;;;;;22.73;21.10;;;;;;;;;;5015582;28;20492;-87
2021/07/29 00:53:10;;;;;;;21.90;20.40;;;;;;;;;;5016214;28;20834;-87
2021/07/29 00:55:38;;;;;;;20.67;19.47;;;;;;;;;;5015561;28;20458;-88
2021/07/29 00:58:05;;;;;;;20.77;19.37;;;;;;;;;;5016140;28;20432;-88
2021/07/29 01:00:33;;;;;;;21.90;20.57;;;;;;;;;;5015981;28;20435;-88
2021/07/29 01:03:00;;;;;;;20.80;19.50;;;;;;;;;;5015493;28;20944;-88
2021/07/29 01:05:27;;;;;;;21.40;20.10;;;;;;;;;;5015549;28;20425;-88
2021/07/29 01:07:56;;;;;;;22.20;20.83;;;;;;;;;;5015659;28;20409;-87
2021/07/29 01:10:23;;;;;;;21.57;20.37;;;;;;;;;;5015700;28;20911;-87
2021/07/29 01:12:51;;;;;;;20.93;19.73;;;;;;;;;;5014390;28;20532;-87
2021/07/29 01:15:18;;;;;;;20.40;19.30;;;;;;;;;;5015246;28;20479;-87
2021/07/29 01:17:46;;;;;;;20.80;19.70;;;;;;;;;;5015692;28;20982;-87
2021/07/29 01:20:19;;;;;;;21.97;20.57;;;;;;;;;;5015611;28;20419;-88
2021/07/29 01:22:47;;;;;;;21.57;20.17;;;;;;;;;;5015520;28;20449;-87
2021/07/29 01:25:14;;;;;;;20.63;19.53;;;;;;;;;;5015108;28;20935;-88
2021/07/29 01:27:42;;;;;;;20.30;19.00;;;;;;;;;;5014920;28;20411;-88
2021/07/29 01:30:09;;;;;;;20.63;19.20;;;;;;;;;;5015413;28;20455;-87
2021/07/29 01:32:39;;;;;;;21.40;20.13;;;;;;;;;;5014965;28;20464;-87
2021/07/29 01:35:08;;;;;;;23.30;21.70;;;;;;;;;;5015074;28;20429;-87
2021/07/29 01:37:37;;;;;;;20.87;19.50;;;;;;;;;;5015075;28;20457;-87
2021/07/29 01:40:05;;;;;;;20.90;19.70;;;;;;;;;;5015284;28;20449;-87
2021/07/29 01:42:32;;;;;;;21.00;19.70;;;;;;;;;;5014830;28;20435;-88
2021/07/29 01:44:59;;;;;;;20.77;19.37;;;;;;;;;;5015027;28;20825;-87
2021/07/29 01:47:27;;;;;;;20.80;19.60;;;;;;;;;;5015036;28;20429;-87
2021/07/29 01:49:54;;;;;;;21.07;19.83;;;;;;;;;;5014619;28;20470;-87
2021/07/29 01:52:22;;;;;;;21.17;19.97;;;;;;;;;;5014971;28;20471;-87
2021/07/29 01:54:51;;;;;;;22.87;21.47;;;;;;;;;;5014924;28;20407;-87
2021/07/29 01:57:19;;;;;;;21.07;19.73;;;;;;;;;;5014931;28;20773;-87
2021/07/29 01:59:47;;;;;;;21.07;19.80;;;;;;;;;;5014659;28;20453;-87
2021/07/29 02:02:15;;;;;;;21.47;20.03;;;;;;;;;;5014674;28;20448;-88
2021/07/29 02:04:42;;;;;;;21.07;19.67;;;;;;;;;;5014460;28;20456;-87
2021/07/29 02:07:09;;;;;;;21.87;20.57;;;;;;;;;;5014634;28;20449;-87
2021/07/29 02:09:37;;;;;;;21.20;19.90;;;;;;;;;;5013512;28;20913;-87
2021/07/29 02:12:06;;;;;;;22.33;21.00;;;;;;;;;;5013616;28;20420;-88
2021/07/29 02:14:34;;;;;;;21.20;19.90;;;;;;;;;;5014583;28;20480;-87
2021/07/29 02:17:01;;;;;;;20.87;19.73;;;;;;;;;;5013462;28;20462;-87
2021/07/29 02:19:28;;;;;;;20.53;19.40;;;;;;;;;;5014254;28;20451;-88
2021/07/29 02:21:56;;;;;;;21.57;20.33;;;;;;;;;;5014327;28;20814;-86
2021/07/29 02:24:23;;;;;;;20.97;19.43;;;;;;;;;;5014582;28;20803;-87
2021/07/29 02:26:50;;;;;;;20.90;19.70;;;;;;;;;;5014175;28;20930;-87
2021/07/29 02:29:19;;;;;;;20.60;19.40;;;;;;;;;;5014270;28;20452;-87
2021/07/29 02:31:47;;;;;;;22.40;21.07;;;;;;;;;;5014514;28;20464;-87
2021/07/29 02:34:14;;;;;;;21.23;19.93;;;;;;;;;;5014407;28;20805;-87
2021/07/29 02:36:41;;;;;;;20.77;19.60;;;;;;;;;;5014956;28;20830;-87
2021/07/29 02:39:09;;;;;;;21.13;19.73;;;;;;;;;;5014594;28;20914;-87
2021/07/29 02:41:36;;;;;;;20.90;19.60;;;;;;;;;;5014104;28;20411;-87
2021/07/29 02:44:03;;;;;;;20.97;19.73;;;;;;;;;;5014106;28;20411;-87
2021/07/29 02:46:33;;;;;;;20.67;19.37;;;;;;;;;;5014087;28;20442;-87
2021/07/29 02:49:00;;;;;;;20.23;19.03;;;;;;;;;;5013758;28;20423;-87
2021/07/29 02:51:28;;;;;;;19.83;18.70;;;;;;;;;;5013998;28;20449;-87
2021/07/29 02:53:55;;;;;;;21.33;19.93;;;;;;;;;;5014179;28;20958;-87
2021/07/29 02:56:22;;;;;;;20.77;19.37;;;;;;;;;;5014296;28;20419;-87
2021/07/29 02:58:49;;;;;;;21.17;19.70;;;;;;;;;;5014492;28;20779;-87
2021/07/29 03:01:17;;;;;;;21.63;20.33;;;;;;;;;;5013150;28;20474;-87
2021/07/29 03:03:46;;;;;;;20.97;19.70;;;;;;;;;;5014097;28;20852;-87
2021/07/29 03:06:13;;;;;;;21.93;20.63;;;;;;;;;;5013976;28;20508;-87
2021/07/29 03:08:41;;;;;;;21.43;20.03;;;;;;;;;;5013825;28;20445;-87
2021/07/29 03:11:11;;;;;;;21.47;19.90;;;;;;;;;;5012742;28;20935;-87
2021/07/29 03:13:38;;;;;;;21.87;20.23;;;;;;;;;;5012572;28;20863;-86
2021/07/29 03:16:05;;;;;;;21.30;20.00;;;;;;;;;;5014456;28;20443;-87
2021/07/29 03:18:33;;;;;;;21.37;19.97;;;;;;;;;;5013133;28;20473;-87
2021/07/29 03:21:02;;;;;;;21.40;20.10;;;;;;;;;;5013716;28;20463;-87
2021/07/29 03:23:29;;;;;;;21.37;19.63;;;;;;;;;;5013986;28;20473;-87
2021/07/29 03:25:57;;;;;;;21.20;19.97;;;;;;;;;;5013925;28;20442;-87
2021/07/29 03:28:24;;;;;;;19.40;18.20;;;;;;;;;;5014067;28;20439;-87
2021/07/29 03:30:52;;;;;;;19.27;18.17;;;;;;;;;;5015021;28;20448;-87
2021/07/29 03:33:19;;;;;;;20.83;19.30;;;;;;;;;;5017115;28;20477;-87
2021/07/29 03:35:47;;;;;;;21.00;19.80;;;;;;;;;;5017541;28;20441;-87
2021/07/29 03:38:15;;;;;;;20.77;19.23;;;;;;;;;;5017275;28;20415;-87
2021/07/29 03:40:43;;;;;;;19.77;18.57;;;;;;;;;;5017121;28;20444;-87
2021/07/29 03:43:10;;;;;;;20.10;18.97;;;;;;;;;;5016967;28;20411;-88
2021/07/29 03:45:40;;;;;;;20.17;18.97;;;;;;;;;;5017191;28;20436;-87
2021/07/29 03:48:08;;;;;;;19.87;18.67;;;;;;;;;;5016911;28;20444;-87
2021/07/29 03:50:35;;;;;;;19.67;18.57;;;;;;;;;;5016707;28;20479;-87
2021/07/29 03:53:03;;;;;;;20.57;19.37;;;;;;;;;;5016657;28;20432;-87
2021/07/29 03:55:32;;;;;;;20.40;19.30;;;;;;;;;;5017144;28;20412;-87
2021/07/29 03:58:00;;;;;;;20.70;19.50;;;;;;;;;;5017281;28;20445;-87
2021/07/29 04:00:27;;;;;;;20.53;19.30;;;;;;;;;;5016647;28;20416;-86
2021/07/29 04:02:54;;;;;;;20.40;19.10;;;;;;;;;;5016553;28;20453;-87
2021/07/29 04:05:22;;;;;;;19.13;18.03;;;;;;;;;;5016733;28;20436;-87
2021/07/29 04:07:49;;;;;;;20.40;19.20;;;;;;;;;;5016500;28;20432;-87
2021/07/29 04:10:16;;;;;;;19.53;18.50;;;;;;;;;;5016829;28;20773;-87
2021/07/29 04:12:45;;;;;;;19.60;18.40;;;;;;;;;;5016457;28;20417;-87
2021/07/29 04:15:13;;;;;;;19.90;18.70;;;;;;;;;;5016560;28;20469;-87
2021/07/29 04:17:41;;;;;;;19.83;18.47;;;;;;;;;;5016744;28;20784;-87
2021/07/29 04:20:09;;;;;;;20.13;18.80;;;;;;;;;;5015221;28;20432;-81
2021/07/29 04:22:37;;;;;;;19.97;18.87;;;;;;;;;;5015992;28;20443;-81
2021/07/29 04:25:04;;;;;;;19.00;17.90;;;;;;;;;;5015677;28;20441;-82
2021/07/29 04:27:32;;;;;;;20.07;18.70;;;;;;;;;;5016218;28;20433;-87
2021/07/29 04:30:00;;;;;;;19.50;18.23;;;;;;;;;;5016388;28;20416;-86
2021/07/29 04:32:34;;;;;;;20.10;18.80;;;;;;;;;;5015955;28;20437;-82
2021/07/29 04:35:02;;;;;;;19.10;17.90;;;;;;;;;;5015437;28;20968;-82
2021/07/29 04:37:29;;;;;;;19.83;18.60;;;;;;;;;;5014190;28;20790;-81
2021/07/29 04:39:57;;;;;;;19.73;18.50;;;;;;;;;;5015745;28;20428;-82
2021/07/29 04:42:24;;;;;;;20.83;19.47;;;;;;;;;;5014884;28;20428;-82
2021/07/29 04:44:51;;;;;;;19.13;18.03;;;;;;;;;;5015298;28;20404;-82
2021/07/29 04:47:20;;;;;;;19.87;18.77;;;;;;;;;;5015262;28;20439;-81
2021/07/29 04:49:47;;;;;;;20.90;19.60;;;;;;;;;;5015251;28;20485;-82
2021/07/29 04:52:15;;;;;;;20.67;19.37;;;;;;;;;;5015226;28;20907;-82
2021/07/29 04:54:42;;;;;;;20.00;19.00;;;;;;;;;;5014996;28;20500;-82
2021/07/29 04:57:09;;;;;;;20.07;18.83;;;;;;;;;;5015186;28;20834;-82
2021/07/29 04:59:40;;;;;;;20.87;19.63;;;;;;;;;;5015069;28;20431;-82
2021/07/29 05:02:08;;;;;;;19.20;18.20;;;;;;;;;;5015228;28;20435;-82
2021/07/29 05:04:36;;;;;;;20.37;18.87;;;;;;;;;;5015152;28;20440;-82
2021/07/29 05:07:04;;;;;;;19.27;18.10;;;;;;;;;;5015181;28;20412;-82
2021/07/29 05:09:32;;;;;;;19.90;18.90;;;;;;;;;;5015180;28;20435;-82
2021/07/29 05:11:59;;;;;;;19.90;18.70;;;;;;;;;;5014907;28;20477;-81
2021/07/29 05:14:26;;;;;;;18.83;17.70;;;;;;;;;;5014830;28;20494;-82
2021/07/29 05:16:53;;;;;;;19.17;17.97;;;;;;;;;;5014688;28;20417;-82
2021/07/29 05:19:21;;;;;;;18.60;17.60;;;;;;;;;;5014962;28;20440;-82
2021/07/29 05:21:49;;;;;;;20.07;19.07;;;;;;;;;;5014776;28;20428;-82
2021/07/29 05:24:17;;;;;;;20.27;19.27;;;;;;;;;;5014929;28;20453;-82
2021/07/29 05:26:44;;;;;;;19.47;18.40;;;;;;;;;;5014504;28;20420;-82
2021/07/29 05:29:12;;;;;;;19.40;18.20;;;;;;;;;;5014545;28;20412;-82
2021/07/29 05:31:41;;;;;;;21.00;19.60;;;;;;;;;;5014453;28;20476;-82
2021/07/29 05:34:09;;;;;;;18.97;17.80;;;;;;;;;;5014384;28;20469;-82
2021/07/29 05:36:37;;;;;;;19.20;18.20;;;;;;;;;;5014749;28;20525;-82
2021/07/29 05:39:06;;;;;;;19.80;18.70;;;;;;;;;;5014341;28;20412;-82
2021/07/29 05:41:33;;;;;;;19.43;18.13;;;;;;;;;;5014699;28;20442;-82
2021/07/29 05:44:00;;;;;;;19.47;18.27;;;;;;;;;;5014192;28;20507;-82
2021/07/29 05:46:28;;;;;;;19.67;18.47;;;;;;;;;;5014182;28;20524;-82
2021/07/29 05:48:55;;;;;;;19.37;18.27;;;;;;;;;;5014245;28;20417;-81
2021/07/29 05:51:23;;;;;;;20.03;18.93;;;;;;;;;;5014187;28;20428;-82
2021/07/29 05:53:50;;;;;;;20.73;18.90;;;;;;;;;;5013667;28;20806;-82
2021/07/29 05:56:19;;;;;;;21.30;19.90;;;;;;;;;;5014236;28;20423;-82
2021/07/29 05:58:46;;;;;;;20.43;19.03;;;;;;;;;;5014101;28;20405;-82
2021/07/29 06:01:13;;;;;;;20.30;19.00;;;;;;;;;;5013890;28;20415;-81
2021/07/29 06:03:40;;;;;;;20.70;19.10;;;;;;;;;;5014220;28;20769;-82
2021/07/29 06:06:08;;;;;;;21.03;19.20;;;;;;;;;;5014288;28;20448;-81
2021/07/29 06:08:35;;;;;;;21.60;20.17;;;;;;;;;;5014030;28;20438;-81
2021/07/29 06:11:05;;;;;;;19.80;18.60;;;;;;;;;;5014323;28;20795;-82
2021/07/29 06:13:34;;;;;;;20.97;19.37;;;;;;;;;;5014077;28;20408;-82
2021/07/29 06:16:02;;;;;;;21.90;20.10;;;;;;;;;;5014029;28;20548;-81
2021/07/29 06:18:30;;;;;;;20.63;19.20;;;;;;;;;;5014174;28;20419;-81
2021/07/29 06:20:57;;;;;;;22.53;20.70;;;;;;;;;;5014051;28;20422;-81
2021/07/29 06:23:24;;;;;;;22.10;20.50;;;;;;;;;;5013829;28;20500;-82
2021/07/29 06:25:52;;;;;;;21.40;20.10;;;;;;;;;;5013759;28;20468;-82
2021/07/29 06:28:19;;;;;;;21.77;19.93;;;;;;;;;;5014020;28;20434;-82
2021/07/29 06:30:48;;;;;;;20.90;19.53;;;;;;;;;;5014015;28;20406;-81
2021/07/29 06:33:15;;;;;;;20.67;19.43;;;;;;;;;;5013448;28;20419;-81
2021/07/29 06:35:43;;;;;;;21.70;19.87;;;;;;;;;;5013541;28;20461;-82
2021/07/29 06:38:10;;;;;;;22.13;20.43;;;;;;;;;;5013922;28;20440;-82
2021/07/29 06:40:37;;;;;;;22.07;20.57;;;;;;;;;;5013540;28;20413;-82
2021/07/29 06:43:05;;;;;;;20.83;19.53;;;;;;;;;;5013950;28;20446;-81
2021/07/29 06:45:32;;;;;;;21.00;19.57;;;;;;;;;;5013826;28;20470;-82
2021/07/29 06:48:01;;;;;;;22.80;21.30;;;;;;;;;;5013655;28;20894;-84
2021/07/29 06:50:28;;;;;;;22.27;20.63;;;;;;;;;;5013324;28;20470;-81
2021/07/29 06:52:55;;;;;;;21.50;20.00;;;;;;;;;;5013443;28;20413;-81
2021/07/29 06:55:23;;;;;;;22.70;20.87;;;;;;;;;;5013236;28;20474;-81
2021/07/29 06:57:50;;;;;;;22.27;20.97;;;;;;;;;;5013576;28;20447;-80
2021/07/29 07:00:20;;;;;;;22.90;21.37;;;;;;;;;;5012582;28;20424;-82
2021/07/29 07:02:47;;;;;;;26.87;20.80;;;;;;;;;;5013778;28;20508;-83
2021/07/29 07:05:16;;;;;;;20.57;19.30;;;;;;;;;;5012177;28;20802;-84
2021/07/29 07:07:44;;;;;;;22.57;21.17;;;;;;;;;;5017605;28;20427;-84
2021/07/29 07:10:12;;;;;;;21.57;20.03;;;;;;;;;;5017367;28;20428;-83
2021/07/29 07:12:39;;;;;;;21.70;20.27;;;;;;;;;;5017360;28;20460;-83
2021/07/29 07:15:07;;;;;;;21.30;19.40;;;;;;;;;;5016067;28;20860;-83
2021/07/29 07:17:34;;;;;;;22.33;20.90;;;;;;;;;;5017323;28;20445;-84
2021/07/29 07:20:02;;;;;;;22.03;20.53;;;;;;;;;;5015920;28;20470;-84
2021/07/29 07:22:31;;;;;;;23.30;21.97;;;;;;;;;;5017237;28;20496;-84
2021/07/29 07:25:00;;;;;;;23.90;22.27;;;;;;;;;;5017297;28;20417;-82
2021/07/29 07:27:28;;;;;;;22.37;21.17;;;;;;;;;;5012932;28;20458;-82
2021/07/29 07:29:56;;;;;;;22.83;21.43;;;;;;;;;;4997478;28;20835;-83
2021/07/29 07:32:24;;;;;;;21.43;20.23;;;;;;;;;;4997120;28;20413;-82
2021/07/29 07:34:51;;;;;;;23.87;21.60;;;;;;;;;;4996097;28;20452;-80
2021/07/29 07:37:20;;;;;;;22.87;21.30;;;;;;;;;;4997183;28;20491;-80
2021/07/29 07:39:49;;;;;;;22.30;20.80;;;;;;;;;;4997326;28;20458;-81
2021/07/29 07:42:17;;;;;;;20.13;19.00;;;;;;;;;;4997140;28;20426;-82
2021/07/29 07:44:44;;;;;;;20.93;19.53;;;;;;;;;;4995922;28;20937;-82
2021/07/29 07:47:11;;;;;;;21.70;20.13;;;;;;;;;;4996018;28;20413;-82
2021/07/29 07:49:40;;;;;;;20.77;19.47;;;;;;;;;;4996713;28;20502;-81
2021/07/29 07:52:08;;;;;;;20.53;19.33;;;;;;;;;;4997074;28;20779;-82
2021/07/29 07:54:36;;;;;;;20.97;19.63;;;;;;;;;;4996601;28;20783;-84
2021/07/29 07:57:06;;;;;;;20.97;19.70;;;;;;;;;;4996951;28;20413;-82
2021/07/29 07:59:36;;;;;;;21.77;20.07;;;;;;;;;;5016514;28;20445;-82
2021/07/29 08:02:04;;;;;;;22.07;20.63;;;;;;;;;;5015735;28;20458;-82
2021/07/29 08:04:31;;;;;;;21.87;20.50;;;;;;;;;;5016072;28;20421;-82
2021/07/29 08:06:59;;;;;;;22.23;21.10;;;;;;;;;;5016015;28;20489;-82
2021/07/29 08:09:26;;;;;;;20.90;19.70;;;;;;;;;;5016305;28;20424;-81
2021/07/29 08:11:54;;;;;;;21.70;19.90;;;;;;;;;;5015816;28;20956;-82
2021/07/29 08:14:23;;;;;;;21.17;19.97;;;;;;;;;;5015856;28;20426;-82
2021/07/29 08:16:51;;;;;;;20.97;19.70;;;;;;;;;;5015204;28;20481;-82
2021/07/29 08:19:18;;;;;;;21.20;19.80;;;;;;;;;;5016076;28;20772;-82
2021/07/29 08:21:45;;;;;;;21.80;20.20;;;;;;;;;;5015776;28;20449;-82
2021/07/29 08:24:12;;;;;;;21.93;20.60;;;;;;;;;;5016243;28;20471;-82
2021/07/29 08:26:40;;;;;;;22.27;20.60;;;;;;;;;;5014540;28;20458;-82
2021/07/29 08:29:07;;;;;;;21.40;19.90;;;;;;;;;;5015969;28;20466;-82
2021/07/29 08:31:36;;;;;;;21.23;19.83;;;;;;;;;;5015831;28;20455;-82
2021/07/29 08:34:03;;;;;;;22.57;21.10;;;;;;;;;;5015492;28;20438;-82
2021/07/29 08:36:30;;;;;;;21.57;20.27;;;;;;;;;;5015714;28;20828;-82
2021/07/29 08:38:58;;;;;;;21.53;20.13;;;;;;;;;;5015530;28;20442;-88
2021/07/29 08:41:25;;;;;;;20.87;19.60;;;;;;;;;;5015742;28;20417;-85
2021/07/29 08:43:53;;;;;;;21.53;20.20;;;;;;;;;;5015931;28;20420;-85
2021/07/29 08:46:21;;;;;;;21.13;19.93;;;;;;;;;;5016172;28;20527;-84
2021/07/29 08:48:51;;;;;;;22.13;20.60;;;;;;;;;;5015668;28;20989;-85
2021/07/29 08:51:20;;;;;;;23.00;21.50;;;;;;;;;;5014610;28;20829;-83
2021/07/29 08:53:48;;;;;;;21.23;19.83;;;;;;;;;;5015697;28;20486;-82
2021/07/29 08:56:17;;;;;;;20.73;19.43;;;;;;;;;;5014978;28;20455;-82
2021/07/29 08:58:45;;;;;;;21.30;20.10;;;;;;;;;;5015299;28;20439;-82
2021/07/29 09:01:13;;;;;;;20.90;19.70;;;;;;;;;;5015384;28;20417;-82
2021/07/29 09:03:41;;;;;;;22.17;20.57;;;;;;;;;;5014896;28;20424;-82
2021/07/29 09:06:11;;;;;;;20.47;19.30;;;;;;;;;;5014983;28;20424;-82
2021/07/29 09:08:45;;;;;;;21.37;19.97;;;;;;;;;;5015175;28;20412;-82
2021/07/29 09:11:42;;;;;;;21.07;19.77;;;;;;;;;;5015217;28;20425;-82
2021/07/29 09:14:13;;;;;;;21.40;20.00;;;;;;;;;;4973729;28;20438;-83
2021/07/29 09:16:53;;;;;;;20.90;19.70;;;;;;;;;;4974079;28;20490;-83
2021/07/29 09:19:30;;;;;;;21.67;20.00;;;;;;;;;;4973870;28;20411;-83
2021/07/29 09:22:07;;;;;;;20.93;19.53;;;;;;;;;;4973824;28;20491;-83
2021/07/29 09:24:35;;;;;;;21.80;20.50;;;;;;;;;;4957829;28;20429;-84
2021/07/29 09:27:02;;;;;;;21.67;20.17;;;;;;;;;;4973537;28;20960;-83
2021/07/29 09:29:30;;;;;;;22.70;20.80;;;;;;;;;;4973526;28;20529;-83
2021/07/29 09:32:09;;;;;;;22.00;20.70;;;;;;;;;;4941902;28;20550;-83
2021/07/29 09:34:46;;;;;;;21.63;20.23;;;;;;;;;;4973606;28;20915;-83
2021/07/29 09:37:16;;;;;;;21.50;20.20;;;;;;;;;;4973748;28;20588;-85
2021/07/29 09:39:43;;;;;;;21.10;19.70;;;;;;;;;;4973199;28;20456;-85
2021/07/29 09:42:18;;;;;;;21.77;20.13;;;;;;;;;;4957592;28;20435;-86
2021/07/29 09:44:46;;;;;;;22.03;20.43;;;;;;;;;;4973654;28;20995;-85
2021/07/29 09:47:13;;;;;;;21.23;20.03;;;;;;;;;;4975659;28;20440;-84
2021/07/29 09:49:42;;;;;;;23.20;21.47;;;;;;;;;;5014401;28;20460;-84
2021/07/29 09:52:10;;;;;;;22.13;20.63;;;;;;;;;;5014780;28;20500;-84
2021/07/29 09:54:40;;;;;;;20.77;19.47;;;;;;;;;;5014378;28;20512;-84
2021/07/29 09:57:07;;;;;;;23.27;21.57;;;;;;;;;;5014397;28;20879;-84
2021/07/29 09:59:36;;;;;;;22.60;21.10;;;;;;;;;;5014127;28;20773;-84
2021/07/29 10:02:05;;;;;;;22.30;21.00;;;;;;;;;;5014957;28;20746;-92
2021/07/29 10:04:35;;;;;;;22.83;21.23;;;;;;;;;;5015051;28;20465;-86
2021/07/29 10:07:05;;;;;;;23.63;21.83;;;;;;;;;;5014673;28;20459;-90
2021/07/29 10:09:34;;;;;;;22.57;21.17;;;;;;;;;;5015149;28;20490;-88
2021/07/29 10:12:03;;;;;;;22.80;21.40;;;;;;;;;;5014503;28;20424;-89
2021/07/29 10:14:51;;;;;;;22.93;21.47;;;;;;;;;;5014008;28;20446;-83
2021/07/29 10:17:19;;;;;;;23.67;22.17;;;;;;;;;;5009155;28;20479;-83
2021/07/29 10:20:05;;;;;;;22.73;21.03;;;;;;;;;;5014082;28;20454;-83
2021/07/29 10:22:32;;;;;;;23.23;21.83;;;;;;;;;;5012816;28;20454;-83
2021/07/29 10:24:59;;;;;;;23.60;21.97;;;;;;;;;;5014102;28;20808;-83
2021/07/29 10:27:28;;;;;;;24.37;22.50;;;;;;;;;;5013648;28;20438;-83
2021/07/29 10:30:16;;;;;;;23.33;21.83;;;;;;;;;;5014343;28;20433;-85
2021/07/29 10:32:47;;;;;;;24.00;22.30;;;;;;;;;;5013882;28;20454;-85
2021/07/29 10:35:29;;;;;;;23.73;22.27;;;;;;;;;;5014218;28;20438;-83
2021/07/29 10:37:57;;;;;;;21.93;20.53;;;;;;;;;;5013676;28;20454;-83
2021/07/29 10:40:35;;;;;;;22.70;21.20;;;;;;;;;;5016130;28;20437;-84
2021/07/29 10:43:20;;;;;;;23.70;21.80;;;;;;;;;;5018046;28;20479;-83
2021/07/29 10:45:53;;;;;;;23.80;22.20;;;;;;;;;;5017781;28;20428;-83
2021/07/29 10:48:35;;;;;;;22.87;21.30;;;;;;;;;;5018027;28;20443;-84
2021/07/29 10:51:11;;;;;;;23.80;22.13;;;;;;;;;;5017216;28;20966;-83
2021/07/29 10:53:39;;;;;;;24.13;22.40;;;;;;;;;;5017804;28;20449;-83
2021/07/29 10:56:08;;;;;;;25.00;23.07;;;;;;;;;;5017521;28;20479;-83
2021/07/29 10:58:40;;;;;;;23.83;22.10;;;;;;;;;;5017422;28;20951;-86
2021/07/29 11:01:10;;;;;;;23.97;22.33;;;;;;;;;;5017749;28;20442;-87
2021/07/29 11:03:44;;;;;;;22.93;21.43;;;;;;;;;;5017888;28;20465;-86
2021/07/29 11:06:13;;;;;;;22.77;21.20;;;;;;;;;;5017716;28;20450;-84
2021/07/29 11:08:41;;;;;;;22.53;21.13;;;;;;;;;;5017604;28;20853;-82
2021/07/29 11:11:09;;;;;;;23.20;21.70;;;;;;;;;;5017378;28;20443;-89
2021/07/29 11:13:36;;;;;;;23.37;21.97;;;;;;;;;;5017576;28;20452;-87
2021/07/29 11:16:06;;;;;;;23.30;21.80;;;;;;;;;;5017739;28;20493;-85
2021/07/29 11:18:35;;;;;;;24.37;22.63;;;;;;;;;;5017928;28;20431;-88
2021/07/29 11:21:14;;;;;;;23.87;22.20;;;;;;;;;;5018193;28;20440;-87
2021/07/29 11:23:41;;;;;;;23.27;21.67;;;;;;;;;;5017369;28;20477;-87
2021/07/29 11:26:09;;;;;;;24.27;22.57;;;;;;;;;;5017450;28;20418;-89
2021/07/29 11:28:36;;;;;;;23.83;22.17;;;;;;;;;;5016072;28;20475;-84
2021/07/29 11:31:04;;;;;;;23.23;21.60;;;;;;;;;;5017299;28;20825;-84
2021/07/29 11:33:31;;;;;;;22.97;21.37;;;;;;;;;;5016969;28;20443;-84
2021/07/29 11:36:09;;;;;;;24.13;22.50;;;;;;;;;;5017161;28;20479;-84
2021/07/29 11:38:39;;;;;;;23.90;22.40;;;;;;;;;;5016837;28;20923;-84
2021/07/29 11:41:06;;;;;;;23.43;21.83;;;;;;;;;;5016670;28;20448;-82
2021/07/29 11:43:35;;;;;;;24.80;22.80;;;;;;;;;;5016969;28;20441;-84
2021/07/29 11:46:06;;;;;;;23.17;21.30;;;;;;;;;;5016551;28;20925;-83
2021/07/29 11:48:34;;;;;;;22.93;21.33;;;;;;;;;;5016253;28;20428;-83
2021/07/29 11:51:01;;;;;;;23.03;21.63;;;;;;;;;;5015314;28;20494;-83
2021/07/29 11:53:40;;;;;;;23.83;22.03;;;;;;;;;;5016471;28;20426;-84
2021/07/29 11:56:08;;;;;;;23.07;21.47;;;;;;;;;;5016209;28;20493;-83
2021/07/29 11:58:36;;;;;;;23.47;21.87;;;;;;;;;;5016354;28;20925;-83
2021/07/29 12:01:10;;;;;;;23.20;21.50;;;;;;;;;;5016329;28;20450;-83
2021/07/29 12:03:39;;;;;;;22.40;20.83;;;;;;;;;;5016258;28;20454;-83
2021/07/29 12:06:06;;;;;;;22.73;21.00;;;;;;;;;;5016567;28;20454;-83
2021/07/29 12:08:35;;;;;;;23.57;21.70;;;;;;;;;;5016238;28;20447;-85
2021/07/29 12:11:04;;;;;;;24.93;23.27;;;;;;;;;;5016415;28;20425;-83
2021/07/29 12:13:32;;;;;;;23.10;21.70;;;;;;;;;;5016467;28;20421;-84
2021/07/29 12:15:59;;;;;;;23.47;22.17;;;;;;;;;;5016083;28;20410;-84
2021/07/29 12:18:27;;;;;;;22.90;21.40;;;;;;;;;;5015989;28;20425;-84
2021/07/29 12:20:55;;;;;;;23.97;22.27;;;;;;;;;;5015167;28;20829;-84
2021/07/29 12:23:23;;;;;;;23.90;22.20;;;;;;;;;;5015835;28;20426;-84
2021/07/29 12:25:51;;;;;;;22.90;21.27;;;;;;;;;;5016121;28;20445;-84
2021/07/29 12:28:38;;;;;;;24.30;22.70;;;;;;;;;;5014838;28;20450;-85
2021/07/29 12:31:17;;;;;;;23.50;21.80;;;;;;;;;;5015833;28;20427;-84
2021/07/29 12:33:49;;;;;;;23.00;21.60;;;;;;;;;;5016038;28;20418;-84
2021/07/29 12:36:17;;;;;;;22.40;20.87;;;;;;;;;;5015804;28;20518;-84
2021/07/29 12:38:45;;;;;;;23.93;22.23;;;;;;;;;;5015736;28;20463;-83
2021/07/29 12:41:12;;;;;;;23.77;22.27;;;;;;;;;;5015927;28;20453;-83
2021/07/29 12:43:41;;;;;;;24.07;22.30;;;;;;;;;;5015470;28;20429;-83
2021/07/29 12:46:09;;;;;;;24.67;22.63;;;;;;;;;;5015786;28;20552;-83
2021/07/29 12:48:51;;;;;;;23.50;21.80;;;;;;;;;;5015662;28;20442;-84
2021/07/29 12:51:34;;;;;;;24.23;22.33;;;;;;;;;;5015545;28;20454;-83
2021/07/29 12:54:01;;;;;;;23.50;21.80;;;;;;;;;;5015316;28;20909;-87
2021/07/29 12:56:28;;;;;;;23.40;21.80;;;;;;;;;;5015368;28;20541;-83
2021/07/29 12:58:57;;;;;;;24.10;22.13;;;;;;;;;;5014130;28;20472;-82
2021/07/29 13:01:25;;;;;;;23.50;21.70;;;;;;;;;;5015168;28;20418;-84
2021/07/29 13:03:52;;;;;;;23.90;22.30;;;;;;;;;;5012772;28;20443;-82
2021/07/29 13:06:20;;;;;;;22.60;20.90;;;;;;;;;;5015231;28;20459;-82
2021/07/29 13:08:47;;;;;;;24.40;22.40;;;;;;;;;;5013548;28;20795;-85
2021/07/29 13:11:15;;;;;;;27.83;22.70;;;;;;;;;;5015290;28;20914;-84
2021/07/29 13:13:43;;;;;;;23.40;21.77;;;;;;;;;;5015069;28;20417;-81
2021/07/29 13:16:12;;;;;;;22.80;21.00;;;;;;;;;;5015434;28;20474;-88
2021/07/29 13:18:40;;;;;;;23.17;21.47;;;;;;;;;;5015605;28;20451;-87
2021/07/29 13:21:08;;;;;;;23.07;21.40;;;;;;;;;;5015794;28;20463;-87
2021/07/29 13:23:35;;;;;;;22.73;21.33;;;;;;;;;;5015680;28;20411;-87
2021/07/29 13:26:06;;;;;;;24.70;22.37;;;;;;;;;;5015744;28;20515;-87
2021/07/29 13:28:38;;;;;;;24.70;22.80;;;;;;;;;;5015010;28;20509;-87
2021/07/29 13:31:07;;;;;;;23.30;21.57;;;;;;;;;;5015213;28;20418;-87
2021/07/29 13:33:36;;;;;;;22.70;21.23;;;;;;;;;;5015224;28;20451;-87
2021/07/29 13:36:04;;;;;;;24.13;22.23;;;;;;;;;;4995100;28;20445;-88
2021/07/29 13:38:31;;;;;;;23.37;21.90;;;;;;;;;;4995769;28;20491;-88
2021/07/29 13:40:58;;;;;;;24.80;23.10;;;;;;;;;;4995613;28;20448;-88
2021/07/29 13:43:26;;;;;;;24.93;22.87;;;;;;;;;;4995776;28;20431;-88
2021/07/29 13:45:53;;;;;;;24.30;22.60;;;;;;;;;;4995472;28;20936;-88
2021/07/29 13:48:20;;;;;;;24.53;22.80;;;;;;;;;;4995204;28;20436;-88
2021/07/29 13:50:49;;;;;;;24.20;22.60;;;;;;;;;;4995285;28;20546;-88
2021/07/29 13:53:16;;;;;;;24.50;22.70;;;;;;;;;;4995441;28;20443;-89
2021/07/29 13:55:44;;;;;;;24.40;22.57;;;;;;;;;;4995507;28;20415;-88
2021/07/29 13:58:11;;;;;;;24.10;22.30;;;;;;;;;;4996032;28;20564;-87
2021/07/29 14:00:38;;;;;;;25.67;23.73;;;;;;;;;;4995049;28;20464;-88
2021/07/29 14:03:10;;;;;;;25.50;23.63;;;;;;;;;;4995275;28;20935;-88
2021/07/29 14:05:41;;;;;;;24.07;22.37;;;;;;;;;;4994936;28;20998;-88
2021/07/29 14:08:10;;;;;;;25.47;23.63;;;;;;;;;;4995281;28;20455;-88
2021/07/29 14:10:37;;;;;;;25.10;23.50;;;;;;;;;;4994422;28;20441;-89
2021/07/29 14:13:05;;;;;;;25.10;23.23;;;;;;;;;;4995173;28;20414;-88
2021/07/29 14:15:32;;;;;;;24.63;22.83;;;;;;;;;;4994078;28;20447;-87
2021/07/29 14:18:01;;;;;;;24.60;22.80;;;;;;;;;;4995115;28;20488;-88
2021/07/29 14:20:31;;;;;;;23.67;22.17;;;;;;;;;;4995109;28;20905;-88
2021/07/29 14:23:07;;;;;;;24.73;23.20;;;;;;;;;;4995073;28;20441;-88
2021/07/29 14:25:38;;;;;;;24.40;22.70;;;;;;;;;;4995516;28;20423;-87
2021/07/29 14:28:06;;;;;;;24.80;23.20;;;;;;;;;;4996442;28;20403;-88